Time;durP1;ratioP1;P1;durP2;ratioP2;P2;SDS_P1;SDS_P2;PMS_P1;PMS_P2;Temp;Humidity;BMP_temperature;BMP_pressure;BME280_temperature;BME280_humidity;BME280_pressure;Samples;Min_cycle;Max_cycle;Signal;HPM_P1;HPM_P2
2021/04/11 00:00:16;;;;;;;;;38.25;36.75;;;;;9.47;38.92;102258.66;5054205;28;11566;-77
2021/04/11 00:03:18;;;;;;;;;36.50;36.25;;;;;9.37;39.00;102251.28;5054521;28;11520;-77
2021/04/11 00:06:14;;;;;;;;;36.50;35.75;;;;;9.44;38.74;102245.44;5041432;28;11576;-77
2021/04/11 00:09:10;;;;;;;;;35.50;33.25;;;;;9.40;38.77;102245.16;5054878;28;11518;-77
2021/04/11 00:12:06;;;;;;;;;35.75;35.75;;;;;9.36;38.72;102233.06;5072294;28;11495;-77
2021/04/11 00:15:04;;;;;;;;;32.00;32.00;;;;;9.11;39.27;102234.00;5074941;28;11551;-77
2021/04/11 00:18:00;;;;;;;;;34.00;32.75;;;;;9.11;39.44;102239.53;5073793;28;11553;-78
2021/04/11 00:20:57;;;;;;;;;35.50;34.50;;;;;9.16;39.33;102238.69;5060525;28;11565;-77
2021/04/11 00:23:27;;;;;;;;;35.00;34.25;;;;;9.23;39.06;102243.91;5075966;28;11573;-77
2021/04/11 00:26:22;;;;;;;;;32.25;30.75;;;;;9.10;39.30;102248.91;5053030;28;11575;-78
2021/04/11 00:29:18;;;;;;;;;29.00;27.00;;;;;9.14;39.44;102247.25;5054720;28;11542;-78
2021/04/11 00:32:14;;;;;;;;;39.00;36.75;;;;;9.15;39.17;102239.78;5053920;28;11546;-77
2021/04/11 00:35:10;;;;;;;;;42.00;39.25;;;;;9.25;39.04;102236.97;5054902;28;11620;-77
2021/04/11 00:38:01;;;;;;;;;36.75;36.50;;;;;9.26;39.18;102248.84;5043439;28;11537;-77
2021/04/11 00:41:01;;;;;;;;;39.75;37.00;;;;;9.23;39.23;102252.19;5058013;28;11548;-76
2021/04/11 00:43:30;;;;;;;;;33.75;33.75;;;;;8.93;39.69;102248.44;5065759;28;11548;-76
2021/04/11 00:46:41;;;;;;;;;35.25;34.25;;;;;9.03;39.49;102255.84;5047859;28;12287;-76
2021/04/11 00:49:44;;;;;;;;;35.00;34.50;;;;;9.02;39.07;102254.19;5057083;28;11576;-77
2021/04/11 00:52:40;;;;;;;;;40.00;37.00;;;;;9.03;39.28;102259.44;5049589;28;11525;-77
2021/04/11 00:55:35;;;;;;;;;32.50;31.25;;;;;9.08;39.27;102251.13;5061775;28;12372;-77
2021/04/11 00:58:32;;;;;;;;;26.00;26.00;;;;;9.01;39.57;102256.13;5055251;28;11593;-77
2021/04/11 01:01:29;;;;;;;;;40.50;37.50;;;;;9.00;40.01;102250.91;5059489;28;11599;-77
2021/04/11 01:04:26;;;;;;;;;29.50;29.50;;;;;9.00;39.84;102248.97;5059148;28;11530;-77
2021/04/11 01:07:16;;;;;;;;;39.00;35.00;;;;;8.99;39.61;102250.09;5060354;28;11519;-75
2021/04/11 01:09:58;;;;;;;;;32.50;32.50;;;;;8.86;40.32;102245.16;5055697;28;11552;-77
2021/04/11 01:12:54;;;;;;;;;42.75;39.75;;;;;8.94;40.06;102244.56;5064018;28;11542;-77
2021/04/11 01:15:52;;;;;;;;;41.25;37.25;;;;;8.83;40.30;102237.44;5063601;28;11596;-78
2021/04/11 01:18:41;;;;;;;;;45.00;41.25;;;;;8.81;40.34;102234.94;5061724;28;11594;-77
2021/04/11 01:21:25;;;;;;;;;46.00;42.00;;;;;8.80;40.66;102235.25;5061583;28;11552;-77
2021/04/11 01:24:37;;;;;;;;;39.25;37.50;;;;;8.53;40.43;102233.69;5047583;28;11665;-77
2021/04/11 01:27:36;;;;;;;;;46.50;41.50;;;;;8.50;40.62;102230.63;5054034;28;11606;-76
2021/04/11 01:30:36;;;;;;;;;34.50;34.50;;;;;8.53;40.89;102230.91;5059365;28;11680;-77
2021/04/11 01:33:38;;;;;;;;;32.25;31.25;;;;;8.38;40.88;102225.44;5040675;28;11541;-77
2021/04/11 01:36:38;;;;;;;;;39.50;38.00;;;;;8.69;40.75;102234.47;5059540;28;11549;-77
2021/04/11 01:39:37;;;;;;;;;49.00;42.75;;;;;8.66;40.81;102229.47;5059570;28;12341;-77
2021/04/11 01:42:06;;;;;;;;;47.00;41.00;;;;;8.42;41.05;102225.69;5061773;28;11607;-77
2021/04/11 01:44:37;;;;;;;;;44.25;40.00;;;;;8.25;41.51;102214.94;5042659;28;12347;-77
2021/04/11 01:47:27;;;;;;;;;45.75;41.75;;;;;8.41;41.32;102216.59;5059069;28;12300;-76
2021/04/11 01:50:23;;;;;;;;;49.25;44.00;;;;;8.34;41.59;102224.28;5038825;28;11583;-77
2021/04/11 01:53:20;;;;;;;;;47.25;42.25;;;;;8.15;41.81;102223.25;5056295;28;12350;-77
2021/04/11 01:56:18;;;;;;;;;58.00;48.50;;;;;8.09;41.99;102222.41;5061038;28;11534;-77
2021/04/11 01:59:24;;;;;;;;;46.75;40.25;;;;;8.25;41.72;102228.72;5063632;28;11571;-78
2021/04/11 02:02:19;;;;;;;;;53.00;46.25;;;;;7.94;42.06;102227.94;5055361;28;11527;-77
2021/04/11 02:04:50;;;;;;;;;56.75;46.75;;;;;7.97;42.10;102236.44;5064689;28;11611;-78
2021/04/11 02:07:47;;;;;;;;;63.00;48.75;;;;;7.85;42.86;102237.84;5039387;28;11632;-78
2021/04/11 02:10:47;;;;;;;;;46.50;42.00;;;;;7.78;42.84;102233.44;5071016;28;11548;-78
2021/04/11 02:13:23;;;;;;;;;57.75;47.25;;;;;7.83;42.81;102238.13;5044652;28;11670;-78
2021/04/11 02:16:26;;;;;;;;;56.25;46.75;;;;;7.81;43.02;102241.13;5059516;28;11587;-78
2021/04/11 02:19:28;;;;;;;;;47.00;41.50;;;;;7.62;43.45;102231.78;5063464;28;11514;-78
2021/04/11 02:22:10;;;;;;;;;50.50;44.50;;;;;7.69;43.04;102239.78;5056917;28;11673;-76
2021/04/11 02:25:17;;;;;;;;;53.25;45.25;;;;;7.78;42.96;102249.97;5057160;28;11548;-78
2021/04/11 02:28:15;;;;;;;;;50.50;45.50;;;;;7.70;43.17;102238.66;5061919;28;11662;-77
2021/04/11 02:31:17;;;;;;;;;57.25;48.50;;;;;7.62;43.61;102242.78;5046473;28;12273;-77
2021/04/11 02:33:45;;;;;;;;;57.00;48.50;;;;;7.55;43.76;102246.91;5060778;28;11570;-77
2021/04/11 02:36:47;;;;;;;;;50.75;45.50;;;;;7.43;43.98;102242.47;5056914;28;11522;-77
2021/04/11 02:39:44;;;;;;;;;46.75;41.50;;;;;7.40;43.65;102236.69;5059460;28;11521;-78
2021/04/11 02:42:29;;;;;;;;;62.50;51.25;;;;;7.41;44.53;102233.66;5063591;28;11641;-78
2021/04/11 02:45:30;;;;;;;;;50.00;44.50;;;;;7.33;44.35;102228.69;5060635;28;11559;-77
2021/04/11 02:48:26;;;;;;;;;41.00;37.25;;;;;7.35;44.40;102225.66;5062995;28;11665;-77
2021/04/11 02:51:24;;;;;;;;;52.50;42.25;;;;;7.41;44.53;102230.91;5060261;28;11511;-76
2021/04/11 02:53:55;;;;;;;;;56.25;47.25;;;;;7.30;44.48;102237.50;5060798;28;11549;-77
2021/04/11 02:56:52;;;;;;;;;49.50;45.00;;;;;7.39;44.83;102237.78;5057508;28;11563;-78
2021/04/11 02:59:53;;;;;;;;;46.00;40.50;;;;;7.28;44.46;102245.16;5066418;28;11541;-77
2021/04/11 03:02:49;;;;;;;;;46.50;41.25;;;;;7.36;44.71;102244.66;5059645;28;11642;-77
2021/04/11 03:05:45;;;;;;;;;47.00;42.25;;;;;7.44;44.44;102255.16;5055882;28;11535;-77
2021/04/11 03:08:47;;;;;;;;;46.50;42.25;;;;;7.46;44.70;102258.44;5046987;28;11569;-76
2021/04/11 03:11:48;;;;;;;;;41.50;38.75;;;;;7.52;44.44;102268.38;5062258;28;11521;-75
2021/04/11 03:14:46;;;;;;;;;40.00;39.25;;;;;7.47;44.97;102268.34;5057525;28;11555;-77
2021/04/11 03:17:22;;;;;;;;;37.50;37.00;;;;;7.44;44.72;102268.91;5049591;28;11551;-76
2021/04/11 03:20:26;;;;;;;;;32.50;31.50;;;;;7.27;44.98;102268.28;5065698;28;11550;-76
2021/04/11 03:23:19;;;;;;;;;32.00;30.75;;;;;7.35;44.72;102275.19;5062878;28;11613;-76
2021/04/11 03:26:34;;;;;;;;;38.75;38.00;;;;;7.57;44.89;102281.31;5052638;28;11537;-75
2021/04/11 03:29:41;;;;;;;;;36.00;32.75;;;;;7.48;44.63;102283.78;5062131;28;11561;-77
2021/04/11 03:32:40;;;;;;;;;23.25;23.25;;;;;7.46;44.69;102285.97;5060677;28;11569;-79
2021/04/11 03:35:39;;;;;;;;;33.25;31.75;;;;;7.28;45.46;102300.22;5063287;28;12351;-78
2021/04/11 03:38:35;;;;;;;;;42.00;39.50;;;;;7.50;45.37;102286.25;5062596;28;11553;-77
2021/04/11 03:41:05;;;;;;;;;32.25;30.25;;;;;7.30;45.60;102289.78;5060823;28;11566;-77
2021/04/11 03:44:07;;;;;;;;;36.75;35.25;;;;;7.31;45.48;102285.09;5048596;28;11541;-77
2021/04/11 03:47:42;;;;;;;;;39.00;37.75;;;;;7.29;45.95;102290.88;5063345;28;11535;-78
2021/04/11 03:50:53;;;;;;;;;31.50;31.50;;;;;7.17;45.68;102293.84;5000465;28;11683;-77
2021/04/11 03:53:52;;;;;;;;;37.75;35.75;;;;;7.25;45.56;102296.09;5063580;28;11530;-77
2021/04/11 03:57:06;;;;;;;;;28.75;27.00;;;;;7.16;46.30;102299.63;5065114;28;11533;-77
2021/04/11 04:00:12;;;;;;;;;34.25;31.75;;;;;7.19;45.99;102294.41;5043046;28;11650;-77
2021/04/11 04:02:45;;;;;;;;;31.50;31.50;;;;;7.17;46.08;102304.88;5065338;28;11610;-77
2021/04/11 04:05:42;;;;;;;;;36.50;36.50;;;;;7.35;45.96;102299.97;5065313;28;11571;-77
2021/04/11 04:08:24;;;;;;;;;36.25;35.25;;;;;7.33;45.82;102296.66;5064979;28;11529;-77
2021/04/11 04:11:41;;;;;;;;;37.00;37.00;;;;;7.37;46.28;102295.88;5069502;28;11659;-77
2021/04/11 04:14:51;;;;;;;;;43.50;41.00;;;;;7.33;45.67;102280.97;5065062;28;11634;-78
2021/04/11 04:17:55;;;;;;;;;42.00;37.75;;;;;7.32;46.11;102281.25;5076218;28;11530;-78
2021/04/11 04:20:51;;;;;;;;;41.25;38.25;;;;;7.30;46.40;102280.69;5079216;28;11556;-77
2021/04/11 04:23:46;;;;;;;;;44.75;40.75;;;;;7.37;46.14;102284.03;5074697;28;11550;-77
2021/04/11 04:27:04;;;;;;;;;45.50;41.75;;;;;7.54;45.86;102279.13;5061623;28;11570;-76
2021/04/11 04:30:05;;;;;;;;;50.25;42.50;;;;;7.64;45.18;102278.31;5063536;28;11526;-77
2021/04/11 04:33:04;;;;;;;;;47.25;41.25;;;;;7.73;45.59;102284.94;5063058;28;12368;-77
2021/04/11 04:36:18;;;;;;;;;34.75;34.75;;;;;7.81;45.17;102284.38;5058915;28;11548;-77
2021/04/11 04:39:38;;;;;;;;;43.00;39.00;;;;;7.97;44.96;102266.75;5061911;28;11626;-78
2021/04/11 04:42:52;;;;;;;;;34.75;33.25;;;;;8.15;44.56;102264.56;5066820;28;11566;-78
2021/04/11 04:46:04;;;;;;;;;36.50;34.50;;;;;8.27;44.32;102257.66;5041743;28;11523;-79
2021/04/11 04:49:17;;;;;;;;;32.50;28.50;;;;;8.41;44.81;102246.94;5064878;28;11579;-78
2021/04/11 04:52:23;;;;;;;;;31.50;30.25;;;;;8.54;43.83;102264.84;5046884;28;12344;-78
2021/04/11 04:55:24;;;;;;;;;37.50;36.50;;;;;8.91;43.56;102262.53;5043908;28;11536;-78
2021/04/11 04:58:25;;;;;;;;;29.25;28.00;;;;;9.30;42.81;102272.03;5061396;28;11538;-77
2021/04/11 05:01:36;;;;;;;;;34.00;31.25;;;;;9.40;42.54;102277.47;5053893;28;11575;-77
2021/04/11 05:04:18;;;;;;;;;37.50;33.00;;;;;9.62;42.89;102272.38;5039006;28;11649;-75
2021/04/11 05:06:52;;;;;;;;;29.50;28.75;;;;;9.78;41.96;102278.63;5060900;28;11561;-77
2021/04/11 05:09:56;;;;;;;;;32.00;32.00;;;;;10.06;41.80;102293.63;5063778;28;11631;-78
2021/04/11 05:12:37;;;;;;;;;29.75;29.25;;;;;10.24;41.23;102284.66;5044094;28;11556;-78
2021/04/11 05:15:45;;;;;;;;;22.25;22.25;;;;;10.44;40.79;102285.59;5060853;28;11538;-78
2021/04/11 05:18:54;;;;;;;;;26.50;25.50;;;;;10.64;40.40;102293.69;5062190;28;11483;-79
2021/04/11 05:22:00;;;;;;;;;21.00;21.00;;;;;10.93;39.36;102290.06;5061505;28;11482;-78
2021/04/11 05:24:47;;;;;;;;;27.75;27.00;;;;;10.98;39.60;102285.28;5073697;28;12314;-79
2021/04/11 05:28:03;;;;;;;;;26.50;22.75;;;;;11.18;39.56;102286.16;5057760;28;11548;-78
2021/04/11 05:31:05;;;;;;;;;26.75;25.50;;;;;10.66;39.79;102285.94;5075909;28;11483;-79
2021/04/11 05:34:03;;;;;;;;;25.75;24.75;;;;;10.88;39.92;102285.38;5067278;28;11473;-78
2021/04/11 05:37:21;;;;;;;;;22.50;22.50;;;;;11.03;39.54;102284.38;5057850;28;11495;-78
2021/04/11 05:40:26;;;;;;;;;26.25;25.75;;;;;11.33;38.99;102294.25;5063547;28;12223;-79
2021/04/11 05:43:37;;;;;;;;;22.00;22.00;;;;;11.54;38.61;102303.13;5063028;28;11603;-78
2021/04/11 05:47:04;;;;;;;;;19.00;17.50;;;;;11.81;38.05;102303.34;5060791;28;11450;-78
2021/04/11 05:50:09;;;;;;;;;26.25;24.00;;;;;11.74;37.85;102318.66;5062380;28;12348;-79
2021/04/11 05:53:11;;;;;;;;;25.50;24.00;;;;;12.05;37.35;102305.19;5070466;28;11484;-78
2021/04/11 05:56:17;;;;;;;;;22.25;22.25;;;;;12.16;37.38;102318.56;5050929;28;11636;-79
2021/04/11 05:59:18;;;;;;;;;20.50;20.00;;;;;12.44;36.60;102313.13;5056895;28;11272;-79
2021/04/11 06:02:00;;;;;;;;;20.50;19.50;;;;;12.58;37.02;102318.72;5049196;28;11285;-79
2021/04/11 06:04:50;;;;;;;;;22.25;22.25;;;;;12.80;36.39;102325.25;5064456;28;11123;-79
2021/04/11 06:07:54;;;;;;;;;22.25;21.75;;;;;13.04;36.23;102319.50;5057215;28;10959;-79
2021/04/11 06:10:49;;;;;;;;;19.00;19.00;;;;;12.89;36.14;102316.19;5053195;28;10873;-79
2021/04/11 06:13:50;;;;;;;;;18.25;17.75;;;;;12.95;36.07;102314.94;5065094;28;10815;-77
2021/04/11 06:16:48;;;;;;;;;19.50;18.00;;;;;12.96;35.89;102309.13;5041958;28;10725;-78
2021/04/11 06:19:18;;;;;;;;;18.75;18.75;;;;;13.12;35.71;102317.16;5037682;28;10913;-79
2021/04/11 06:22:03;;;;;;;;;19.00;19.00;;;;;13.42;35.64;102312.91;5063854;28;10804;-78
2021/04/11 06:24:46;;;;;;;;;20.50;20.25;;;;;12.75;36.21;102319.78;5054179;28;10745;-80
2021/04/11 06:28:12;;;;;;;;;16.00;16.00;;;;;13.39;39.66;102322.69;5056532;28;10517;-81
2021/04/11 06:31:13;;;;;;;;;17.00;17.00;;;;;13.51;37.32;102314.66;5053678;28;11480;-80
2021/04/11 06:34:00;;;;;;;;;25.25;25.25;;;;;14.37;39.78;102317.34;5061173;28;10579;-79
2021/04/11 06:37:02;;;;;;;;;40.75;32.50;;;;;14.22;41.23;102311.34;5049616;28;10426;-79
2021/04/11 06:40:04;;;;;;;;;25.50;20.00;;;;;14.47;35.44;102313.50;5064107;28;10677;-80
2021/04/11 06:43:18;;;;;;;;;23.25;23.25;;;;;14.44;35.08;102317.72;5067290;28;10504;-80
2021/04/11 06:46:49;;;;;;;;;2.75;2.75;;;;;14.82;40.69;102316.50;5060749;28;10360;-80
2021/04/11 06:49:19;;;;;;;;;32.00;27.00;;;;;14.56;35.79;102325.50;5003386;28;10279;-81
2021/04/11 06:52:36;;;;;;;;;17.25;17.25;;;;;14.71;36.95;102313.97;5055709;28;10097;-79
2021/04/11 06:56:07;;;;;;;;;19.50;17.25;;;;;14.87;37.93;102310.75;5049678;28;10121;-80
2021/04/11 06:59:24;;;;;;;;;18.75;18.75;;;;;15.14;37.30;102313.34;5004606;28;10013;-79
2021/04/11 07:03:17;;;;;;;;;23.00;21.75;;;;;14.55;34.00;102298.00;5061756;28;10091;-80
2021/04/11 07:06:37;;;;;;;;;17.25;17.25;;;;;15.17;40.53;102304.31;5001076;28;10240;-80
2021/04/11 07:09:50;;;;;;;;;20.00;20.00;;;;;15.21;43.61;102288.63;5003684;28;10000;-82
2021/04/11 07:12:49;;;;;;;;;14.00;13.50;;;;;15.29;35.34;102295.34;5047585;28;9939;-79
2021/04/11 07:15:53;;;;;;;;;16.25;16.25;;;;;15.56;33.99;102297.88;5047245;28;9890;-78
2021/04/11 07:19:11;;;;;;;;;15.00;15.00;;;;;15.65;31.12;102302.69;5055690;28;9631;-78
2021/04/11 07:22:25;;;;;;;;;13.50;13.50;;;;;15.53;30.53;102297.69;5056213;28;9583;-79
2021/04/11 07:25:31;;;;;;;;;13.25;13.25;;;;;15.23;30.63;102305.81;5043055;28;9603;-79
2021/04/11 07:28:34;;;;;;;;;16.50;16.50;;;;;15.37;30.68;102297.34;5050977;28;9651;-81
2021/04/11 07:31:54;;;;;;;;;17.25;17.25;;;;;15.20;30.92;102302.88;5064642;28;9792;-79
2021/04/11 07:34:47;;;;;;;;;15.50;15.00;;;;;15.54;31.04;102293.75;5056509;28;9844;-80
2021/04/11 07:37:33;;;;;;;;;17.00;17.00;;;;;15.65;30.65;102300.72;5057976;28;9843;-78
2021/04/11 07:40:19;;;;;;;;;10.75;10.50;;;;;15.79;31.03;102286.59;5062657;28;10491;-78
2021/04/11 07:43:21;;;;;;;;;14.00;12.25;;;;;16.01;30.27;102277.22;5048719;28;9656;-79
2021/04/11 07:46:17;;;;;;;;;13.33;13.33;;;;;16.50;29.55;102272.25;5065891;28;9627;-78
2021/04/11 07:49:33;;;;;;;;;14.00;13.33;;;;;16.84;29.72;102274.09;5039650;28;9498;-79
2021/04/11 07:52:47;;;;;;;;;15.67;15.67;;;;;16.58;29.70;102265.81;5042687;28;9584;-79
2021/04/11 07:56:20;;;;;;;;;14.67;14.67;;;;;17.20;29.34;102271.63;5067869;28;9470;-78
2021/04/11 07:59:29;;;;;;;;;5.00;5.00;;;;;17.24;29.08;102264.19;5055434;28;9420;-78
2021/04/11 08:02:46;;;;;;;;;17.00;15.33;;;;;17.40;28.68;102264.41;5066014;28;9080;-79
2021/04/11 08:05:58;;;;;;;;;13.00;13.00;;;;;17.19;28.45;102249.59;5064807;28;9080;-79
2021/04/11 08:09:48;;;;;;;;;13.67;13.67;;;;;17.29;28.01;102243.59;5070719;28;9069;-80
2021/04/11 08:12:38;;;;;;;;;8.75;8.75;;;;;16.88;29.63;102239.56;5011593;28;8953;-78
2021/04/11 08:15:50;;;;;;;;;22.67;17.33;;;;;17.09;28.36;102230.41;5056965;28;8941;-80
2021/04/11 08:19:07;;;;;;;;;14.33;14.33;;;;;17.03;28.90;102220.59;5060663;28;8996;-80
2021/04/11 08:22:03;;;;;;;;;9.33;9.00;;;;;17.12;28.73;102224.16;5062989;28;9808;-80
2021/04/11 08:25:26;;;;;;;;;18.33;14.67;;;;;17.26;28.72;102212.72;5063255;28;8967;-82
2021/04/11 08:28:22;;;;;;;;;13.00;13.00;;;;;17.59;27.55;102208.00;5053296;28;8915;-79
2021/04/11 08:31:49;;;;;;;;;10.50;10.50;;;;;17.81;26.95;102203.25;5059930;28;8830;-80
2021/04/11 08:35:07;;;;;;;;;11.75;11.75;;;;;17.83;27.32;102189.72;5055256;28;8859;-79
2021/04/11 08:38:02;;;;;;;;;62.00;34.67;;;;;17.32;26.21;102191.75;5052503;28;8849;-82
2021/04/11 08:41:00;;;;;;;;;12.00;11.00;;;;;17.37;26.53;102194.38;5055047;28;9336;-81
2021/04/11 08:44:20;;;;;;;;;11.00;11.00;;;;;17.78;27.09;102187.94;5065041;28;8831;-79
2021/04/11 08:47:15;;;;;;;;;10.25;10.25;;;;;17.70;27.70;102183.22;5050689;28;8838;-78
2021/04/11 08:50:38;;;;;;;;;8.00;8.00;;;;;17.97;27.15;102179.84;5045657;28;8914;-78
2021/04/11 08:54:02;;;;;;;;;10.50;10.50;;;;;18.34;26.31;102171.53;5060903;28;8876;-78
2021/04/11 08:57:38;;;;;;;;;10.25;10.25;;;;;18.45;25.99;102195.13;5053027;28;8869;-79
2021/04/11 09:00:15;;;;;;;;;8.50;8.50;;;;;17.89;25.91;102180.78;5048882;28;8906;-81
2021/04/11 09:03:51;;;;;;;;;12.25;12.25;;;;;17.88;25.76;102181.13;5056743;28;8835;-80
2021/04/11 09:06:26;;;;;;;;;5.50;5.50;;;;;18.48;25.59;102182.38;5048061;28;9620;-80
2021/04/11 09:09:33;;;;;;;;;12.75;12.75;;;;;18.50;25.78;102192.09;5065472;28;8893;-80
2021/04/11 09:12:44;;;;;;;;;11.25;9.75;;;;;19.02;25.72;102176.59;5058691;28;8851;-81
2021/04/11 09:16:12;;;;;;;;;9.50;8.50;;;;;18.82;25.14;102176.38;5054834;28;8883;-79
2021/04/11 09:19:38;;;;;;;;;9.50;9.50;;;;;18.97;25.29;102162.81;5055539;28;8852;-79
2021/04/11 09:22:55;;;;;;;;;10.00;8.25;;;;;18.35;25.63;102145.16;5067981;28;8825;-80
2021/04/11 09:26:17;;;;;;;;;11.75;11.75;;;;;18.86;25.58;102132.47;5056622;28;8844;-79
2021/04/11 09:29:20;;;;;;;;;6.50;6.50;;;;;18.75;25.09;102114.47;5061402;28;8848;-80
2021/04/11 09:32:58;;;;;;;;;7.00;7.00;;;;;18.60;25.27;102101.16;5060693;28;8826;-79
2021/04/11 09:36:17;;;;;;;;;17.00;12.50;;;;;18.26;25.64;102096.84;5056706;28;8993;-78
2021/04/11 09:39:02;;;;;;;;;9.25;9.00;;;;;18.67;24.74;102100.59;5063547;28;8849;-80
2021/04/11 09:42:16;;;;;;;;;7.00;7.00;;;;;18.10;24.62;102093.13;5061201;28;8857;-79
2021/04/11 09:45:33;;;;;;;;;7.00;7.00;;;;;19.33;24.25;102097.41;5061355;28;8812;-81
2021/04/11 09:49:06;;;;;;;;;7.75;7.75;;;;;18.86;24.55;102086.78;5064113;28;8859;-83
2021/04/11 09:52:25;;;;;;;;;11.00;11.00;;;;;19.33;24.63;102066.53;5061038;28;8825;-80
2021/04/11 09:55:26;;;;;;;;;0.00;0.00;;;;;19.31;24.94;102082.91;5058067;28;8852;-80
2021/04/11 09:58:50;;;;;;;;;8.75;8.25;;;;;19.43;24.13;102094.88;5060842;28;8854;-80
2021/04/11 10:02:10;;;;;;;;;7.00;7.00;;;;;19.47;23.41;102114.63;5066610;28;8874;-79
2021/04/11 10:05:25;;;;;;;;;9.25;8.50;;;;;19.34;23.11;102113.06;5062687;28;8833;-80
2021/04/11 10:08:19;;;;;;;;;8.25;8.25;;;;;19.95;23.43;102096.75;5070115;28;8862;-79
2021/04/11 10:11:20;;;;;;;;;8.25;8.25;;;;;20.09;23.47;102090.69;5056739;28;8860;-80
2021/04/11 10:14:03;;;;;;;;;9.75;9.75;;;;;19.38;23.92;102083.09;5058818;28;9621;-81
2021/04/11 10:16:46;;;;;;;;;10.25;10.25;;;;;20.41;22.98;102079.44;5066690;28;8835;-80
2021/04/11 10:20:13;;;;;;;;;9.75;9.75;;;;;20.51;22.98;102065.66;5056336;28;8961;-81
2021/04/11 10:23:03;;;;;;;;;7.00;7.00;;;;;20.39;23.04;102073.34;5002658;28;8925;-80
2021/04/11 10:26:05;;;;;;;;;4.75;4.75;;;;;20.38;22.59;102071.72;4995109;28;8849;-80
2021/04/11 10:29:13;;;;;;;;;6.00;6.00;;;;;20.23;22.59;102064.94;5058261;28;8828;-80
2021/04/11 10:32:05;;;;;;;;;8.25;8.25;;;;;20.08;23.21;102065.75;5065949;28;8884;-80
2021/04/11 10:35:12;;;;;;;;;9.50;9.50;;;;;20.03;23.03;102055.63;5041170;28;9609;-80
2021/04/11 10:37:47;;;;;;;;;10.00;10.00;;;;;20.14;22.32;102064.31;5062511;28;8924;-81
2021/04/11 10:40:38;;;;;;;;;8.00;8.00;;;;;20.80;22.22;102055.06;5042589;28;8889;-80
2021/04/11 10:43:36;;;;;;;;;8.75;8.75;;;;;20.39;22.48;102050.84;5063606;28;8849;-79
2021/04/11 10:46:24;;;;;;;;;8.75;8.75;;;;;20.57;23.14;102046.50;5063137;28;8860;-79
2021/04/11 10:49:10;;;;;;;;;9.25;8.75;;;;;19.58;23.79;102042.00;5047562;28;8873;-81
2021/04/11 10:51:58;;;;;;;;;8.50;8.50;;;;;20.65;22.74;102056.75;5059860;28;8859;-80
2021/04/11 10:55:02;;;;;;;;;8.50;8.50;;;;;20.46;22.48;102049.06;5049294;28;8845;-81
2021/04/11 10:57:36;;;;;;;;;12.25;12.00;;;;;20.66;22.26;102058.34;5064215;28;9581;-81
2021/04/11 11:00:45;;;;;;;;;14.75;14.75;;;;;20.01;22.51;102060.75;5058879;28;9607;-81
2021/04/11 11:04:09;;;;;;;;;12.25;12.25;;;;;20.97;22.20;102045.38;5052865;28;8852;-81
2021/04/11 11:06:58;;;;;;;;;10.25;10.25;;;;;20.87;22.56;102043.16;5070042;28;8838;-79
2021/04/11 11:09:45;;;;;;;;;11.50;11.50;;;;;21.22;21.54;102048.69;5055733;28;9419;-79
2021/04/11 11:12:32;;;;;;;;;14.75;14.75;;;;;21.14;21.15;102044.09;5055606;28;8851;-81
2021/04/11 11:15:21;;;;;;;;;16.50;16.50;;;;;20.86;21.75;102035.91;5054629;28;8946;-81
2021/04/11 11:18:24;;;;;;;;;17.50;17.00;;;;;20.43;22.23;102026.47;5063566;28;8841;-81
2021/04/11 11:21:38;;;;;;;;;16.50;16.50;;;;;20.49;22.12;102027.88;5042981;28;9544;-80
2021/04/11 11:25:05;;;;;;;;;14.25;14.25;;;;;20.74;22.46;102037.66;5070458;28;8850;-77
2021/04/11 11:28:05;;;;;;;;;12.75;12.75;;;;;20.65;22.48;102020.19;5052715;28;8954;-79
2021/04/11 11:31:02;;;;;;;;;11.00;11.00;;;;;20.19;21.97;102008.69;5043220;28;8875;-79
2021/04/11 11:34:16;;;;;;;;;9.00;9.00;;;;;20.27;21.91;102010.47;5056367;28;8845;-78
2021/04/11 11:37:20;;;;;;;;;10.00;10.00;;;;;20.64;22.23;102001.69;5063182;28;8952;-79
2021/04/11 11:40:29;;;;;;;;;12.25;12.25;;;;;20.98;21.15;102004.81;5053521;28;8929;-78
2021/04/11 11:44:03;;;;;;;;;11.50;10.50;;;;;20.40;21.92;101991.50;5065257;28;8852;-78
2021/04/11 11:47:17;;;;;;;;;6.50;6.25;;;;;20.39;22.13;101975.81;5059825;28;8838;-79
2021/04/11 11:50:36;;;;;;;;;14.75;13.25;;;;;19.71;22.67;101988.25;5055647;28;8855;-79
2021/04/11 11:53:55;;;;;;;;;6.75;6.75;;;;;19.92;21.93;101978.72;5055976;28;8824;-78
2021/04/11 11:57:10;;;;;;;;;9.50;9.50;;;;;20.26;22.07;101975.13;5045168;28;8956;-78
2021/04/11 12:00:16;;;;;;;;;12.00;11.00;;;;;19.94;22.44;101948.31;5043154;28;8993;-79
2021/04/11 12:03:33;;;;;;;;;13.00;13.00;;;;;19.50;22.95;101958.78;5049370;28;8853;-80
2021/04/11 12:06:26;;;;;;;;;8.00;8.00;;;;;19.73;23.41;101954.19;5062427;28;8859;-81
2021/04/11 12:09:17;;;;;;;;;11.50;11.25;;;;;20.15;22.90;101943.16;5056497;28;8852;-78
2021/04/11 12:12:33;;;;;;;;;9.00;9.00;;;;;20.23;23.06;101946.94;5065806;28;8995;-79
2021/04/11 12:15:21;;;;;;;;;8.25;8.25;;;;;20.36;23.21;101942.03;5061724;28;8918;-80
2021/04/11 12:17:59;;;;;;;;;9.75;9.75;;;;;19.90;23.04;101944.56;5059195;28;9686;-79
2021/04/11 12:21:19;;;;;;;;;8.25;8.25;;;;;20.18;22.35;101936.84;5050238;28;8842;-79
2021/04/11 12:24:26;;;;;;;;;8.75;8.25;;;;;19.74;23.08;101941.78;5063857;28;8929;-79
2021/04/11 12:27:35;;;;;;;;;7.25;7.25;;;;;19.97;23.19;101945.56;5052331;28;8841;-79
2021/04/11 12:30:06;;;;;;;;;10.75;10.75;;;;;19.95;22.81;101936.69;5064252;28;8836;-78
2021/04/11 12:33:07;;;;;;;;;9.00;9.00;;;;;20.17;23.32;101928.78;5069264;28;8851;-78
2021/04/11 12:36:20;;;;;;;;;41.75;20.75;;;;;19.32;23.51;101919.88;5022210;28;8872;-79
2021/04/11 12:39:12;;;;;;;;;10.25;10.25;;;;;19.50;22.95;101919.50;5064252;28;8836;-78
2021/04/11 12:41:42;;;;;;;;;9.50;9.50;;;;;20.01;23.39;101911.94;5063724;28;8841;-78
2021/04/11 12:44:51;;;;;;;;;8.75;8.75;;;;;19.95;23.26;101914.22;5059142;28;8882;-79
2021/04/11 12:48:25;;;;;;;;;10.00;9.50;;;;;19.43;22.87;101903.31;5059185;28;8848;-79
2021/04/11 12:51:32;;;;;;;;;8.50;8.50;;;;;19.83;21.94;101916.34;5065678;28;8882;-80
2021/04/11 12:54:50;;;;;;;;;10.50;10.50;;;;;19.76;22.15;101910.53;5065264;28;8891;-79
2021/04/11 12:57:59;;;;;;;;;8.75;8.75;;;;;19.47;22.11;101904.19;5051032;28;8950;-81
2021/04/11 13:01:00;;;;;;;;;10.00;10.00;;;;;19.64;22.10;101897.44;5045271;28;8888;-79
2021/04/11 13:04:03;;;;;;;;;8.25;8.25;;;;;20.07;21.88;101906.84;5039633;28;8864;-78
2021/04/11 13:07:23;;;;;;;;;12.00;12.00;;;;;20.10;21.43;101897.72;5062288;28;8836;-79
2021/04/11 13:10:21;;;;;;;;;10.50;10.50;;;;;20.23;22.20;101902.00;5063174;28;8914;-79
2021/04/11 13:13:47;;;;;;;;;10.50;10.50;;;;;19.30;22.13;101904.56;5048878;28;8921;-79
2021/04/11 13:17:10;;;;;;;;;13.50;13.00;;;;;19.34;22.09;101897.88;5065221;28;8841;-79
2021/04/11 13:20:14;;;;;;;;;13.50;13.50;;;;;19.60;22.39;101890.91;5054300;28;8908;-79
2021/04/11 13:23:54;;;;;;;;;14.25;14.25;;;;;19.93;21.97;101896.09;5058781;28;8960;-79
2021/04/11 13:27:07;;;;;;;;;9.75;9.75;;;;;19.90;22.01;101894.84;5072527;28;8911;-78
2021/04/11 13:30:14;;;;;;;;;17.00;17.00;;;;;20.14;21.33;101901.41;5058709;28;8837;-79
2021/04/11 13:33:05;;;;;;;;;20.50;20.50;;;;;20.24;22.04;101906.44;5057913;28;8821;-78
2021/04/11 13:36:05;;;;;;;;;8.50;8.50;;;;;19.94;21.75;101906.19;5071927;28;8846;-79
2021/04/11 13:38:39;;;;;;;;;12.75;12.75;;;;;19.79;21.84;101899.41;5072044;28;8838;-79
2021/04/11 13:41:56;;;;;;;;;11.25;11.25;;;;;19.17;22.37;101912.25;5067556;28;8870;-80
2021/04/11 13:45:31;;;;;;;;;8.25;8.25;;;;;19.37;22.16;101894.34;5070336;28;8841;-79
2021/04/11 13:49:16;;;;;;;;;8.75;8.50;;;;;19.75;22.27;101892.06;5071091;28;8986;-79
2021/04/11 13:52:25;;;;;;;;;7.00;7.00;;;;;19.40;21.78;101899.25;5072328;28;8837;-80
2021/04/11 13:55:32;;;;;;;;;7.00;7.00;;;;;19.56;21.88;101882.41;5071735;28;8907;-80
2021/04/11 13:58:39;;;;;;;;;9.00;9.00;;;;;19.49;21.76;101875.78;5071828;28;8978;-78
2021/04/11 14:01:38;;;;;;;;;10.00;9.75;;;;;19.49;21.97;101878.59;5071787;28;8834;-79